createdAt,value
2018-05-02T00:00:31.785Z,1.87
2018-05-02T00:02:58.823Z,1.60
2018-05-02T00:05:25.804Z,1.90
2018-05-02T00:07:52.061Z,1.63
2018-05-02T00:10:18.596Z,2.00
2018-05-02T00:12:44.879Z,1.83
2018-05-02T00:15:11.206Z,2.40
2018-05-02T00:17:37.407Z,2.30
2018-05-02T00:20:03.641Z,1.77
2018-05-02T00:22:30.622Z,2.13
2018-05-02T00:24:56.929Z,1.70
2018-05-02T00:27:23.135Z,1.63
2018-05-02T00:29:50.194Z,1.57
2018-05-02T00:32:16.490Z,1.80
2018-05-02T00:34:44.198Z,1.70
2018-05-02T00:37:10.489Z,1.83
2018-05-02T00:39:36.744Z,1.60
2018-05-02T00:42:03.962Z,1.93
2018-05-02T00:44:31.722Z,2.10
2018-05-02T00:46:58.855Z,1.77
2018-05-02T00:49:25.018Z,1.67
2018-05-02T00:51:52.033Z,1.80
2018-05-02T00:54:18.304Z,2.00
2018-05-02T00:56:44.581Z,1.70
2018-05-02T00:59:10.776Z,1.97
2018-05-02T01:01:37.029Z,2.10
2018-05-02T01:04:03.366Z,2.07
2018-05-02T01:06:29.566Z,1.70
2018-05-02T01:08:55.833Z,2.17
2018-05-02T01:11:22.071Z,1.70
2018-05-02T01:13:48.406Z,2.00
2018-05-02T01:16:14.745Z,2.10
2018-05-02T01:18:41.747Z,1.70
2018-05-02T01:21:07.993Z,1.80
2018-05-02T01:23:35.629Z,2.30
2018-05-02T01:26:01.905Z,1.70
2018-05-02T01:28:28.854Z,2.07
2018-05-02T01:30:55.261Z,2.07
2018-05-02T01:33:22.240Z,2.17
2018-05-02T01:35:48.729Z,2.07
2018-05-02T01:38:15.048Z,1.83
2018-05-02T01:40:41.358Z,1.93
2018-05-02T01:43:07.537Z,2.00
2018-05-02T01:45:34.546Z,2.00
2018-05-02T01:48:00.893Z,2.10
2018-05-02T01:50:27.948Z,2.27
2018-05-02T01:52:54.146Z,2.20
2018-05-02T01:55:20.450Z,2.70
2018-05-02T01:57:46.690Z,3.60
2018-05-02T02:00:12.964Z,2.00
2018-05-02T02:02:40.056Z,1.93
2018-05-02T02:05:06.444Z,1.83
2018-05-02T02:07:33.411Z,1.83
2018-05-02T02:09:59.658Z,2.10
2018-05-02T02:12:26.015Z,1.93
2018-05-02T02:14:52.273Z,2.33
2018-05-02T02:17:19.246Z,2.20
2018-05-02T02:19:45.467Z,2.07
2018-05-02T02:22:11.865Z,1.80
2018-05-02T02:24:39.027Z,2.20
2018-05-02T02:27:06.091Z,1.97
2018-05-02T02:29:32.564Z,2.00
2018-05-02T02:31:58.839Z,2.10
2018-05-02T02:34:25.787Z,1.80
2018-05-02T02:36:52.827Z,1.90
2018-05-02T02:39:19.921Z,2.10
2018-05-02T02:41:46.137Z,1.80
2018-05-02T02:44:12.412Z,2.50
2018-05-02T02:46:40.247Z,2.30
2018-05-02T02:49:06.497Z,1.67
2018-05-02T02:51:35.366Z,3.27
2018-05-02T02:54:01.699Z,2.13
2018-05-02T02:56:28.060Z,2.03
2018-05-02T02:58:55.026Z,1.93
2018-05-02T03:01:21.323Z,1.73
2018-05-02T03:03:47.545Z,2.10
2018-05-02T03:06:15.240Z,2.10
2018-05-02T03:08:41.679Z,1.93
2018-05-02T03:11:07.891Z,2.33
2018-05-02T03:13:34.435Z,2.03
2018-05-02T03:16:00.747Z,2.07
2018-05-02T03:18:27.704Z,2.00
2018-05-02T03:20:54.050Z,1.90
2018-05-02T03:23:20.245Z,2.40
2018-05-02T03:25:47.252Z,2.40
2018-05-02T03:28:13.509Z,2.10
2018-05-02T03:30:40.722Z,2.30
2018-05-02T03:33:06.990Z,2.00
2018-05-02T03:35:34.068Z,1.90
2018-05-02T03:38:00.305Z,1.70
2018-05-02T03:40:26.542Z,1.93
2018-05-02T03:42:52.795Z,2.00
2018-05-02T03:45:19.057Z,2.07
2018-05-02T03:47:45.547Z,2.37
2018-05-02T03:50:11.917Z,1.80
2018-05-02T03:52:38.451Z,2.10
2018-05-02T03:55:05.579Z,2.10
2018-05-02T03:57:32.561Z,2.30
2018-05-02T04:00:11.235Z,1.97
2018-05-02T04:02:49.915Z,2.00
2018-05-02T04:05:28.735Z,2.40
2018-05-02T04:07:54.913Z,2.10
2018-05-02T04:10:21.246Z,2.37
2018-05-02T04:12:48.311Z,2.00
2018-05-02T04:15:14.530Z,2.40
2018-05-02T04:17:41.559Z,2.40
2018-05-02T04:20:07.803Z,1.90
2018-05-02T04:22:34.740Z,2.20
2018-05-02T04:25:01.703Z,2.30
2018-05-02T04:27:27.891Z,2.73
2018-05-02T04:29:54.325Z,2.70
2018-05-02T04:32:20.698Z,2.30
2018-05-02T04:34:46.965Z,1.70
2018-05-02T04:37:13.981Z,2.50
2018-05-02T04:39:40.360Z,2.87
2018-05-02T04:42:06.587Z,2.63
2018-05-02T04:44:33.581Z,2.10
2018-05-02T04:46:59.792Z,2.60
2018-05-02T04:49:26.087Z,2.30
2018-05-02T04:51:53.903Z,2.00
2018-05-02T04:54:20.167Z,2.47
2018-05-02T04:56:46.717Z,2.80
2018-05-02T04:59:13.024Z,2.13
2018-05-02T05:01:39.301Z,2.50
2018-05-02T05:04:05.501Z,2.60
2018-05-02T05:06:31.808Z,2.20
2018-05-02T05:08:58.030Z,2.57
2018-05-02T05:11:24.288Z,2.77
2018-05-02T05:13:51.280Z,3.20
2018-05-02T05:16:17.540Z,2.97
2018-05-02T05:18:43.867Z,6.07
2018-05-02T05:21:11.008Z,5.90
2018-05-02T05:23:37.240Z,5.17
2018-05-02T05:26:03.514Z,4.43
2018-05-02T05:28:29.719Z,8.90
2018-05-02T05:30:56.879Z,8.57
2018-05-02T05:33:23.890Z,7.80
2018-05-02T05:35:50.128Z,5.00
2018-05-02T05:38:16.376Z,6.53
2018-05-02T05:40:43.397Z,6.60
2018-05-02T05:43:10.340Z,6.43
2018-05-02T05:45:38.066Z,6.77
2018-05-02T05:48:04.420Z,6.27
2018-05-02T05:50:30.644Z,5.80
2018-05-02T05:52:56.916Z,4.97
2018-05-02T05:55:23.488Z,4.63
2018-05-02T05:57:49.882Z,3.53
2018-05-02T06:00:16.836Z,4.27
2018-05-02T06:02:43.115Z,3.30
2018-05-02T06:05:09.441Z,3.30
2018-05-02T06:07:35.576Z,3.20
2018-05-02T06:10:03.318Z,3.57
2018-05-02T06:12:29.603Z,3.37
2018-05-02T06:14:55.845Z,3.70
2018-05-02T06:17:22.081Z,3.50
2018-05-02T06:19:48.396Z,3.70
2018-05-02T06:22:14.761Z,3.87
2018-05-02T06:24:42.025Z,3.30
2018-05-02T06:27:09.016Z,3.30
2018-05-02T06:29:35.441Z,15.70
2018-05-02T06:32:01.688Z,16.47
2018-05-02T06:34:27.858Z,10.47
2018-05-02T06:36:54.160Z,10.07
2018-05-02T06:39:20.406Z,10.13
2018-05-02T06:41:46.796Z,9.00
2018-05-02T06:44:13.049Z,6.97
2018-05-02T06:46:39.223Z,7.50
2018-05-02T06:49:05.616Z,7.20
2018-05-02T06:51:31.921Z,6.20
2018-05-02T06:53:58.125Z,6.30
2018-05-02T06:56:24.429Z,5.77
2018-05-02T06:58:51.359Z,5.40
2018-05-02T07:01:18.375Z,6.77
2018-05-02T07:03:44.691Z,5.90
2018-05-02T07:06:10.902Z,5.67
2018-05-02T07:08:37.188Z,4.70
2018-05-02T07:11:03.500Z,4.80
2018-05-02T07:13:29.938Z,5.30
2018-05-02T07:15:57.647Z,6.10
2018-05-02T07:18:23.916Z,8.00
2018-05-02T07:20:50.189Z,4.20
2018-05-02T07:23:17.165Z,3.17
2018-05-02T07:25:43.449Z,3.10
2018-05-02T07:28:09.629Z,2.73
2018-05-02T07:30:35.937Z,2.93
2018-05-02T07:33:02.589Z,2.70
2018-05-02T07:35:29.701Z,2.80
2018-05-02T07:37:56.668Z,2.73
2018-05-02T07:40:23.142Z,2.70
2018-05-02T07:42:51.141Z,2.40
2018-05-02T07:45:18.040Z,2.40
2018-05-02T07:47:44.261Z,2.53
2018-05-02T07:50:10.543Z,2.47
2018-05-02T07:52:38.069Z,2.00
2018-05-02T07:55:04.394Z,1.90
2018-05-02T07:57:30.601Z,1.93
2018-05-02T07:59:56.940Z,2.07
2018-05-02T08:02:23.206Z,1.67
2018-05-02T08:04:50.215Z,1.83
2018-05-02T08:07:16.445Z,1.70
2018-05-02T08:09:42.602Z,1.80
2018-05-02T08:12:09.611Z,1.77
2018-05-02T08:14:35.878Z,1.87
2018-05-02T08:17:02.881Z,1.73
2018-05-02T08:19:29.047Z,1.60
2018-05-02T08:21:56.151Z,1.73
2018-05-02T08:24:22.341Z,1.90
2018-05-02T08:26:48.556Z,1.63
2018-05-02T08:29:15.581Z,1.60
2018-05-02T08:31:41.959Z,1.60
2018-05-02T08:34:08.129Z,1.80
2018-05-02T08:36:34.919Z,2.00
2018-05-02T08:39:01.183Z,1.70
2018-05-02T08:41:27.338Z,2.20
2018-05-02T08:43:53.587Z,1.90
2018-05-02T08:46:19.810Z,2.00
2018-05-02T08:48:46.820Z,1.60
2018-05-02T08:51:13.099Z,1.90
2018-05-02T08:53:39.398Z,1.47
2018-05-02T08:56:06.459Z,2.13
2018-05-02T08:58:32.787Z,1.80
2018-05-02T09:00:59.851Z,2.70
2018-05-02T09:03:26.095Z,2.13
2018-05-02T09:05:52.318Z,1.50
2018-05-02T09:08:18.751Z,2.10
2018-05-02T09:10:45.098Z,1.80
2018-05-02T09:13:11.436Z,1.40
2018-05-02T09:15:37.697Z,2.53
2018-05-02T09:18:04.013Z,1.53
2018-05-02T09:20:30.366Z,1.57
2018-05-02T09:22:57.568Z,1.77
2018-05-02T09:25:23.991Z,1.87
2018-05-02T09:27:50.205Z,1.67
2018-05-02T09:30:16.691Z,1.70
2018-05-02T09:32:43.751Z,1.73
2018-05-02T09:35:10.761Z,1.47
2018-05-02T09:37:36.971Z,1.70
2018-05-02T09:40:03.526Z,1.73
2018-05-02T09:42:29.959Z,1.60
2018-05-02T09:44:56.261Z,1.30
2018-05-02T09:47:22.585Z,1.73
2018-05-02T09:49:49.154Z,1.63
2018-05-02T09:52:15.493Z,1.70
2018-05-02T09:54:41.932Z,1.63
2018-05-02T09:57:08.941Z,1.40
2018-05-02T09:59:35.145Z,1.30
2018-05-02T10:02:01.385Z,1.33
2018-05-02T10:04:27.718Z,1.63
2018-05-02T10:06:54.092Z,1.50
2018-05-02T10:09:21.357Z,1.43
2018-05-02T10:11:48.488Z,1.50
2018-05-02T10:14:14.791Z,1.33
2018-05-02T10:16:41.163Z,1.50
2018-05-02T10:19:08.132Z,1.50
2018-05-02T10:21:35.366Z,1.47
2018-05-02T10:24:02.383Z,1.50
2018-05-02T10:26:28.744Z,1.70
2018-05-02T10:28:55.134Z,1.70
2018-05-02T10:31:21.558Z,1.93
2018-05-02T10:33:47.959Z,1.63
2018-05-02T10:36:14.402Z,1.90
2018-05-02T10:38:40.669Z,1.63
2018-05-02T10:41:07.048Z,1.33
2018-05-02T10:43:33.311Z,1.50
2018-05-02T10:45:59.641Z,1.30
2018-05-02T10:48:25.844Z,1.60
2018-05-02T10:50:52.357Z,1.47
2018-05-02T10:53:18.664Z,1.83
2018-05-02T10:55:45.669Z,1.47
2018-05-02T10:58:11.980Z,2.00
2018-05-02T11:00:38.331Z,1.53
2018-05-02T11:03:05.081Z,1.20
2018-05-02T11:05:31.300Z,1.40
2018-05-02T11:07:57.657Z,1.60
2018-05-02T11:10:24.809Z,1.30
2018-05-02T11:12:52.133Z,1.67
2018-05-02T11:15:18.768Z,1.67
2018-05-02T11:17:45.120Z,1.80
2018-05-02T11:20:12.451Z,2.00
2018-05-02T11:22:38.985Z,2.10
2018-05-02T11:25:05.226Z,2.33
2018-05-02T11:27:31.643Z,2.20
2018-05-02T11:29:58.006Z,2.53
2018-05-02T11:32:25.056Z,2.80
2018-05-02T11:34:52.224Z,2.30
2018-05-02T11:37:18.504Z,2.67
2018-05-02T11:39:44.936Z,3.23
2018-05-02T11:42:11.332Z,2.57
2018-05-02T11:44:37.635Z,3.10
2018-05-02T11:47:03.919Z,2.67
2018-05-02T11:49:30.369Z,2.70
2018-05-02T11:51:56.690Z,3.07
2018-05-02T11:54:23.119Z,2.80
2018-05-02T11:56:49.390Z,3.60
2018-05-02T11:59:16.552Z,3.40
2018-05-02T12:01:42.760Z,3.53
2018-05-02T12:04:09.728Z,3.40
2018-05-02T12:06:36.096Z,4.07
2018-05-02T12:09:02.597Z,3.97
2018-05-02T12:11:28.970Z,3.83
2018-05-02T12:13:55.269Z,4.40
2018-05-02T12:16:21.569Z,3.80
2018-05-02T12:18:47.830Z,3.30
2018-05-02T12:21:14.006Z,3.90
2018-05-02T12:23:40.996Z,4.27
2018-05-02T12:26:07.223Z,3.83
2018-05-02T12:28:33.781Z,3.37
2018-05-02T12:31:00.187Z,4.20
2018-05-02T12:33:26.371Z,4.00
2018-05-02T12:35:53.439Z,4.30
2018-05-02T12:38:19.728Z,4.33
2018-05-02T12:40:46.829Z,4.60
2018-05-02T12:43:13.196Z,4.27
2018-05-02T12:45:39.509Z,4.20
2018-05-02T12:48:05.829Z,4.17
2018-05-02T12:50:32.289Z,4.47
2018-05-02T12:52:58.722Z,4.33
2018-05-02T12:55:24.980Z,4.47
2018-05-02T12:57:51.961Z,4.53
2018-05-02T13:00:18.210Z,3.90
2018-05-02T13:02:44.625Z,4.40
2018-05-02T13:05:10.852Z,4.50
2018-05-02T13:07:37.084Z,4.57
2018-05-02T13:10:03.461Z,4.00
2018-05-02T13:12:30.434Z,4.87
2018-05-02T13:14:57.110Z,4.27
2018-05-02T13:17:23.405Z,4.50
2018-05-02T13:19:49.892Z,5.30
2018-05-02T13:22:16.090Z,4.60
2018-05-02T13:24:43.124Z,4.60
2018-05-02T13:27:09.545Z,4.33
2018-05-02T13:29:35.862Z,3.90
2018-05-02T13:32:02.240Z,3.83
2018-05-02T13:34:28.502Z,4.43
2018-05-02T13:36:55.622Z,4.83
2018-05-02T13:39:21.947Z,4.10
2018-05-02T13:41:48.326Z,4.70
2018-05-02T13:44:14.647Z,4.40
2018-05-02T13:46:41.673Z,4.57
2018-05-02T13:49:08.497Z,4.90
2018-05-02T13:51:36.467Z,4.23
2018-05-02T13:54:03.028Z,4.07
2018-05-02T13:56:30.382Z,4.43
2018-05-02T13:58:58.278Z,5.20
2018-05-02T14:01:24.663Z,4.97
2018-05-02T14:03:52.880Z,4.47
2018-05-02T14:06:19.183Z,4.90
2018-05-02T14:08:45.736Z,4.83
2018-05-02T14:11:11.970Z,4.47
2018-05-02T14:13:38.330Z,4.80
2018-05-02T14:16:04.557Z,4.07
2018-05-02T14:18:30.852Z,4.70
2018-05-02T14:20:57.150Z,4.30
2018-05-02T14:23:24.144Z,4.23
2018-05-02T14:25:50.510Z,4.27
2018-05-02T14:28:16.813Z,4.00
2018-05-02T14:30:43.168Z,4.07
2018-05-02T14:33:09.493Z,4.10
2018-05-02T14:35:35.927Z,4.87
2018-05-02T14:38:02.226Z,4.20
2018-05-02T14:40:29.201Z,3.70
2018-05-02T14:42:55.590Z,3.70
2018-05-02T14:45:21.971Z,3.30
2018-05-02T14:47:48.261Z,4.10
2018-05-02T14:50:14.635Z,3.63
2018-05-02T14:52:42.338Z,3.67
2018-05-02T14:55:08.692Z,3.50
2018-05-02T14:57:35.062Z,3.70
2018-05-02T15:00:02.303Z,3.43
2018-05-02T15:02:28.521Z,3.97
2018-05-02T15:04:54.889Z,3.60
2018-05-02T15:07:21.958Z,3.73
2018-05-02T15:09:48.230Z,4.10
2018-05-02T15:12:14.560Z,3.60
2018-05-02T15:14:40.846Z,4.60
2018-05-02T15:17:07.003Z,3.93
2018-05-02T15:19:33.353Z,3.80
2018-05-02T15:21:59.706Z,3.20
2018-05-02T15:24:26.719Z,3.60
2018-05-02T15:26:52.987Z,3.73
2018-05-02T15:29:19.995Z,3.40
2018-05-02T15:31:47.245Z,3.10
2018-05-02T15:34:13.501Z,3.13
2018-05-02T15:36:40.614Z,3.27
2018-05-02T15:39:07.108Z,3.40
2018-05-02T15:41:33.560Z,3.40
2018-05-02T15:44:00.588Z,3.23
2018-05-02T15:46:26.811Z,3.23
2018-05-02T15:48:53.238Z,3.00
2018-05-02T15:51:20.341Z,3.50
2018-05-02T15:53:46.754Z,3.40
2018-05-02T15:56:13.196Z,3.30
2018-05-02T15:58:39.374Z,4.13
2018-05-02T16:01:06.591Z,3.47
2018-05-02T16:03:32.840Z,3.27
2018-05-02T16:05:59.855Z,3.37
2018-05-02T16:08:26.135Z,3.10
2018-05-02T16:10:52.415Z,2.87
2018-05-02T16:13:18.683Z,4.10
2018-05-02T16:15:44.984Z,3.20
2018-05-02T16:18:11.236Z,3.03
2018-05-02T16:20:38.248Z,3.67
2018-05-02T16:23:04.488Z,2.77
2018-05-02T16:25:30.720Z,2.83
2018-05-02T16:27:57.811Z,2.93
2018-05-02T16:30:24.081Z,4.27
2018-05-02T16:32:50.504Z,4.67
2018-05-02T16:35:16.697Z,6.03
2018-05-02T16:37:43.176Z,5.60
2018-05-02T16:40:09.492Z,3.30
2018-05-02T16:42:35.872Z,3.17
2018-05-02T16:45:02.876Z,2.80
2018-05-02T16:47:29.106Z,2.83
2018-05-02T16:49:55.531Z,2.80
2018-05-02T16:52:21.740Z,2.50
2018-05-02T16:54:48.358Z,2.87
2018-05-02T16:57:14.752Z,2.63
2018-05-02T16:59:41.805Z,3.87
2018-05-02T17:02:08.738Z,4.83
2018-05-02T17:04:34.969Z,6.80
2018-05-02T17:07:01.991Z,4.90
2018-05-02T17:09:28.372Z,4.97
2018-05-02T17:11:54.691Z,3.53
2018-05-02T17:14:21.803Z,3.30
2018-05-02T17:16:48.155Z,2.53
2018-05-02T17:19:15.080Z,2.13
2018-05-02T17:21:41.399Z,2.50
2018-05-02T17:24:07.672Z,2.00
2018-05-02T17:26:35.212Z,2.20
2018-05-02T17:29:01.629Z,2.27
2018-05-02T17:31:27.800Z,2.40
2018-05-02T17:33:54.070Z,2.67
2018-05-02T17:36:20.407Z,2.43
2018-05-02T17:38:46.840Z,2.40
2018-05-02T17:41:13.161Z,2.50
2018-05-02T17:43:39.416Z,2.17
2018-05-02T17:46:05.633Z,1.97
2018-05-02T17:48:32.016Z,1.83
2018-05-02T17:50:58.307Z,1.60
2018-05-02T17:53:24.643Z,1.90
2018-05-02T17:55:51.700Z,1.73
2018-05-02T17:58:18.696Z,1.83
2018-05-02T18:00:45.061Z,1.30
2018-05-02T18:03:12.014Z,1.60
2018-05-02T18:05:39.058Z,1.00
2018-05-02T18:08:05.297Z,1.23
2018-05-02T18:10:32.330Z,1.03
2018-05-02T18:12:58.666Z,1.33
2018-05-02T18:15:25.591Z,1.10
2018-05-02T18:17:51.893Z,1.30
2018-05-02T18:20:18.196Z,1.30
2018-05-02T18:22:44.539Z,1.27
2018-05-02T18:25:10.830Z,1.13
2018-05-02T18:27:37.938Z,1.00
2018-05-02T18:30:05.232Z,1.10
2018-05-02T18:32:31.542Z,1.20
2018-05-02T18:34:57.837Z,0.97
2018-05-02T18:37:24.065Z,1.23
2018-05-02T18:39:50.281Z,1.33
2018-05-02T18:42:16.567Z,1.07
2018-05-02T18:44:43.537Z,0.80
2018-05-02T18:47:09.907Z,1.10
2018-05-02T18:49:36.236Z,1.53
2018-05-02T18:52:02.445Z,1.90
2018-05-02T18:54:28.716Z,2.57
2018-05-02T18:56:55.789Z,2.50
2018-05-02T18:59:22.164Z,2.33
2018-05-02T19:01:48.563Z,2.00
2018-05-02T19:04:14.886Z,2.03
2018-05-02T19:06:41.193Z,2.30
2018-05-02T19:09:08.320Z,3.37
2018-05-02T19:11:35.248Z,1.87
2018-05-02T19:14:01.545Z,1.70
2018-05-02T19:16:27.952Z,1.70
2018-05-02T19:19:01.163Z,1.43
2018-05-02T19:21:27.513Z,3.03
2018-05-02T19:23:53.899Z,1.97
2018-05-02T19:26:26.251Z,2.20
2018-05-02T19:28:52.606Z,2.70
2018-05-02T19:31:25.757Z,4.00
2018-05-02T19:33:52.025Z,3.90
2018-05-02T19:36:18.961Z,4.70
2018-05-02T19:38:45.206Z,2.13
2018-05-02T19:41:17.705Z,1.80
2018-05-02T19:43:50.058Z,1.97
2018-05-02T19:46:16.356Z,1.93
2018-05-02T19:48:44.129Z,2.70
2018-05-02T19:51:17.441Z,2.37
2018-05-02T19:53:44.032Z,3.60
2018-05-02T19:56:10.388Z,2.90
2018-05-02T19:58:37.288Z,2.30
2018-05-02T20:01:09.835Z,1.30
2018-05-02T20:03:36.297Z,2.47
2018-05-02T20:06:02.578Z,2.47
2018-05-02T20:08:35.012Z,2.30
2018-05-02T20:11:07.468Z,1.60
2018-05-02T20:13:40.338Z,1.80
2018-05-02T20:16:07.532Z,1.30
2018-05-02T20:18:34.959Z,2.10
2018-05-02T20:21:01.181Z,1.80
2018-05-02T20:23:27.639Z,2.90
2018-05-02T20:25:53.925Z,1.70
2018-05-02T20:28:20.142Z,1.60
2018-05-02T20:30:47.550Z,1.30
2018-05-02T20:33:13.790Z,1.40
2018-05-02T20:35:40.036Z,1.00
2018-05-02T20:38:06.947Z,1.10
2018-05-02T20:40:33.122Z,1.00
2018-05-02T20:42:59.438Z,1.67
2018-05-02T20:45:25.664Z,1.60
2018-05-02T20:47:52.047Z,1.73
2018-05-02T20:50:18.396Z,2.00
2018-05-02T20:52:44.790Z,1.33
2018-05-02T20:55:11.250Z,1.60
2018-05-02T20:57:37.517Z,3.10
2018-05-02T21:00:03.832Z,2.40
2018-05-02T21:02:30.868Z,2.97
2018-05-02T21:04:57.181Z,2.73
2018-05-02T21:07:25.037Z,2.40
2018-05-02T21:09:51.334Z,2.07
2018-05-02T21:12:17.569Z,1.87
2018-05-02T21:14:44.147Z,1.50
2018-05-02T21:17:10.423Z,1.67
2018-05-02T21:19:36.659Z,1.63
2018-05-02T21:22:03.102Z,1.70
2018-05-02T21:24:29.420Z,1.47
2018-05-02T21:26:55.839Z,1.37
2018-05-02T21:29:23.636Z,1.80
2018-05-02T21:31:49.885Z,1.93
2018-05-02T21:34:16.123Z,2.00
2018-05-02T21:36:43.386Z,2.00
2018-05-02T21:39:09.796Z,1.90
2018-05-02T21:41:36.146Z,2.22
2018-05-02T21:44:03.358Z,1.87
2018-05-02T21:46:29.623Z,1.80
2018-05-02T21:48:56.772Z,1.73
2018-05-02T21:51:23.833Z,1.70
2018-05-02T21:53:50.066Z,2.07
2018-05-02T21:56:16.290Z,1.80
2018-05-02T21:58:42.809Z,1.73
2018-05-02T22:01:09.203Z,2.53
2018-05-02T22:03:36.997Z,2.30
2018-05-02T22:06:03.928Z,3.20
2018-05-02T22:08:30.183Z,2.90
2018-05-02T22:10:56.403Z,2.40
2018-05-02T22:13:23.920Z,2.67
2018-05-02T22:15:50.191Z,2.27
2018-05-02T22:18:17.445Z,2.50
2018-05-02T22:20:43.843Z,2.60
2018-05-02T22:23:10.828Z,2.23
2018-05-02T22:25:37.132Z,2.33
2018-05-02T22:28:03.445Z,2.43
2018-05-02T22:30:30.398Z,1.63
2018-05-02T22:32:56.663Z,2.30
2018-05-02T22:35:22.981Z,2.50
2018-05-02T22:37:50.087Z,2.60
2018-05-02T22:40:16.329Z,3.33
2018-05-02T22:42:42.586Z,2.43
2018-05-02T22:45:08.917Z,3.23
2018-05-02T22:47:35.927Z,3.40
2018-05-02T22:50:02.994Z,3.50
2018-05-02T22:52:29.287Z,2.37
2018-05-02T22:54:55.538Z,2.40
2018-05-02T22:57:22.598Z,2.77
2018-05-02T22:59:49.678Z,2.03
2018-05-02T23:02:16.002Z,2.60
2018-05-02T23:04:42.264Z,2.30
2018-05-02T23:07:08.573Z,2.70
2018-05-02T23:09:34.832Z,2.13
2018-05-02T23:12:01.043Z,2.20
2018-05-02T23:14:27.337Z,2.10
2018-05-02T23:16:53.528Z,1.97
2018-05-02T23:19:19.786Z,1.70
2018-05-02T23:21:46.003Z,2.20
2018-05-02T23:24:12.913Z,2.40
2018-05-02T23:26:39.345Z,1.87
2018-05-02T23:29:05.701Z,2.20
2018-05-02T23:31:32.653Z,1.80
2018-05-02T23:33:59.604Z,2.03
2018-05-02T23:36:25.783Z,2.23
2018-05-02T23:38:52.133Z,2.10
2018-05-02T23:41:18.426Z,1.90
2018-05-02T23:43:44.772Z,1.93
2018-05-02T23:46:10.963Z,1.73
2018-05-02T23:48:37.201Z,2.03
2018-05-02T23:51:03.430Z,2.20
2018-05-02T23:53:29.682Z,1.80
2018-05-02T23:55:55.903Z,2.00
2018-05-02T23:58:22.028Z,1.90
